Metar z połowy godziny Komunikat METAR ze strony awiacja.imgw.pl Metar G30 EPMM METAR EPMM 200930Z 21005KT 150V280 9999 FEW025 BKN100 27/20 Q1011 RMK 267 066 7/2=